createdAt,value
2023-03-08T00:01:39.689Z,95074.85
2023-03-08T00:11:42.821Z,95079.14
2023-03-08T00:21:45.940Z,95074.48
2023-03-08T00:31:50.825Z,95075.74
2023-03-08T00:41:55.634Z,95065.87
2023-03-08T00:51:58.728Z,95055.79
2023-03-08T01:02:01.998Z,95046.08
2023-03-08T01:12:05.637Z,95042.10
2023-03-08T01:22:08.733Z,95035.67
2023-03-08T01:32:12.073Z,95049.07
2023-03-08T01:42:15.244Z,95048.02
2023-03-08T01:52:27.107Z,95049.64
2023-03-08T02:02:39.275Z,95051.85
2023-03-08T02:12:43.224Z,95055.52
2023-03-08T02:22:53.395Z,95063.52
2023-03-08T02:32:59.010Z,95077.41
2023-03-08T02:43:05.017Z,95074.08
2023-03-08T02:53:08.342Z,95070.71
2023-03-08T03:03:11.701Z,95070.95
2023-03-08T03:13:14.909Z,95076.85
2023-03-08T03:23:18.456Z,95078.14
2023-03-08T03:33:26.925Z,95089.09
2023-03-08T03:43:31.841Z,95094.85
2023-03-08T03:53:36.655Z,95110.05
2023-03-08T04:03:41.536Z,95131.91
2023-03-08T04:13:46.320Z,95141.99
2023-03-08T04:23:50.652Z,95145.61
2023-03-08T04:33:55.775Z,95152.80
2023-03-08T04:43:58.995Z,95167.66
2023-03-08T04:54:16.864Z,95190.44
2023-03-08T05:04:24.657Z,95203.30
2023-03-08T05:14:28.593Z,95198.08
2023-03-08T05:24:32.266Z,95214.59
2023-03-08T05:34:37.947Z,95224.23
2023-03-08T05:44:42.489Z,95234.58
2023-03-08T05:54:47.970Z,95235.73
2023-03-08T06:04:54.410Z,95257.82
2023-03-08T06:14:59.818Z,95263.70
2023-03-08T06:25:04.930Z,95269.77
2023-03-08T06:35:11.242Z,95277.54
2023-03-08T06:45:18.890Z,95289.52
2023-03-08T06:55:22.355Z,95288.41
2023-03-08T07:05:26.427Z,95295.02
2023-03-08T07:15:29.865Z,95292.31
2023-03-08T07:25:32.981Z,95306.48
2023-03-08T07:35:39.886Z,95330.59
2023-03-08T07:45:43.315Z,95334.31
2023-03-08T07:55:46.457Z,95348.77
2023-03-08T08:05:49.629Z,95360.54
2023-03-08T08:16:01.040Z,95362.84
2023-03-08T08:26:12.417Z,95374.77
2023-03-08T08:36:20.706Z,95384.19
2023-03-08T08:46:24.069Z,95377.80
2023-03-08T08:56:29.016Z,95369.13
2023-03-08T09:06:34.770Z,95357.12
2023-03-08T09:16:39.397Z,95352.95
2023-03-08T09:26:42.743Z,95358.80
2023-03-08T09:36:45.925Z,95363.77
2023-03-08T09:47:17.360Z,95352.54
2023-03-08T09:57:29.119Z,95355.42
2023-03-08T10:07:50.916Z,95360.58
2023-03-08T10:18:05.194Z,95350.71
2023-03-08T10:28:16.218Z,95342.78
2023-03-08T10:38:19.553Z,95328.35
2023-03-08T10:48:22.907Z,95333.15
2023-03-08T10:58:40.395Z,95318.48
2023-03-08T11:08:56.123Z,95317.02
2023-03-08T11:19:20.430Z,95318.15
2023-03-08T11:29:41.827Z,95313.59
2023-03-08T11:39:59.250Z,95306.54
2023-03-08T11:50:24.547Z,95300.85
2023-03-08T12:00:43.111Z,95275.92
2023-03-08T12:10:56.894Z,95254.67
2023-03-08T12:21:32.784Z,95243.66
2023-03-08T12:31:44.752Z,95237.40
2023-03-08T12:42:01.612Z,95226.80
2023-03-08T12:52:08.309Z,95216.43
2023-03-08T13:02:27.281Z,95207.80
2023-03-08T13:12:43.316Z,95209.17
2023-03-08T13:23:18.837Z,95195.56
2023-03-08T13:33:24.950Z,95182.75
2023-03-08T13:43:32.377Z,95175.03
2023-03-08T13:53:38.215Z,95180.11
2023-03-08T14:03:43.316Z,95174.77
2023-03-08T14:13:50.924Z,95166.61
2023-03-08T14:24:02.495Z,95160.38
2023-03-08T14:34:19.277Z,95142.10
2023-03-08T14:44:28.152Z,95130.00
2023-03-08T14:54:36.671Z,95108.09
2023-03-08T15:04:40.778Z,95086.73
2023-03-08T15:14:45.000Z,95076.23
2023-03-08T15:24:48.348Z,95064.80
2023-03-08T15:34:51.399Z,95077.05
2023-03-08T15:44:55.638Z,95079.17
2023-03-08T15:54:58.872Z,95067.40
2023-03-08T16:05:03.227Z,95071.22
2023-03-08T16:15:07.690Z,95064.95
2023-03-08T16:25:10.846Z,95045.77
2023-03-08T16:35:13.959Z,95038.66
2023-03-08T16:45:17.331Z,95040.97
2023-03-08T16:55:26.376Z,95038.61
2023-03-08T17:05:29.791Z,95010.00
2023-03-08T17:15:43.627Z,95004.05
2023-03-08T17:25:47.080Z,95016.52
2023-03-08T17:35:53.960Z,95015.38
2023-03-08T17:46:04.888Z,95014.59
2023-03-08T17:56:10.126Z,95009.43
2023-03-08T18:06:33.786Z,94994.11
2023-03-08T18:16:38.652Z,94985.98
2023-03-08T18:26:41.707Z,94974.95
2023-03-08T18:36:44.828Z,94967.36
2023-03-08T18:46:48.013Z,94938.33
2023-03-08T18:56:53.845Z,94936.04
2023-03-08T19:06:56.934Z,94927.30
2023-03-08T19:17:01.027Z,94915.02
2023-03-08T19:27:06.342Z,94895.08
2023-03-08T19:37:13.368Z,94896.88
2023-03-08T19:47:20.220Z,94879.85
2023-03-08T19:57:23.408Z,94857.73
2023-03-08T20:07:26.589Z,94848.90
2023-03-08T20:17:32.270Z,94836.93
2023-03-08T20:27:38.030Z,94841.95
2023-03-08T20:37:42.048Z,94844.39
2023-03-08T20:47:47.697Z,94826.68
2023-03-08T20:57:52.036Z,94819.33
2023-03-08T21:07:55.499Z,94803.28
2023-03-08T21:17:58.971Z,94779.52
2023-03-08T21:28:02.104Z,94789.86
2023-03-08T21:38:06.731Z,94771.06
2023-03-08T21:48:10.295Z,94770.25
2023-03-08T21:58:16.486Z,94770.36
2023-03-08T22:08:19.559Z,94764.36
2023-03-08T22:18:23.570Z,94762.20
2023-03-08T22:28:26.662Z,94760.20
2023-03-08T22:38:30.784Z,94757.43
2023-03-08T22:48:36.533Z,94749.24
2023-03-08T22:58:39.692Z,94747.98
2023-03-08T23:08:43.054Z,94751.64
2023-03-08T23:18:50.334Z,94749.09
2023-03-08T23:28:56.922Z,94751.54
2023-03-08T23:39:04.472Z,94740.65
2023-03-08T23:49:09.610Z,94739.94
2023-03-08T23:59:20.218Z,94736.73
